createdAt,value
2019-05-01T00:02:10.707Z,83.60
2019-05-01T00:04:52.303Z,83.30
2019-05-01T00:07:25.015Z,83.40
2019-05-01T00:09:56.283Z,83.60
2019-05-01T00:12:27.136Z,83.97
2019-05-01T00:14:58.388Z,84.25
2019-05-01T00:17:29.460Z,84.16
2019-05-01T00:20:00.403Z,84.28
2019-05-01T00:22:31.280Z,84.21
2019-05-01T00:25:02.340Z,84.35
2019-05-01T00:27:33.296Z,84.63
2019-05-01T00:30:08.089Z,84.32
2019-05-01T00:32:40.122Z,83.98
2019-05-01T00:35:10.878Z,84.19
2019-05-01T00:37:41.629Z,84.22
2019-05-01T00:40:12.792Z,83.92
2019-05-01T00:42:43.651Z,83.63
2019-05-01T00:45:14.591Z,83.84
2019-05-01T00:47:45.565Z,83.60
2019-05-01T00:50:16.505Z,83.53
2019-05-01T00:52:47.483Z,83.92
2019-05-01T00:55:36.645Z,83.83
2019-05-01T00:58:18.242Z,84.46
2019-05-01T01:00:53.598Z,83.87
2019-05-01T01:03:24.657Z,83.84
2019-05-01T01:05:55.511Z,84.07
2019-05-01T01:08:26.577Z,84.41
2019-05-01T01:10:57.536Z,84.61
2019-05-01T01:13:28.678Z,84.30
2019-05-01T01:15:59.755Z,84.78
2019-05-01T01:18:30.816Z,84.45
2019-05-01T01:21:01.776Z,84.33
2019-05-01T01:23:33.448Z,84.56
2019-05-01T01:26:04.099Z,84.61
2019-05-01T01:28:35.159Z,84.50
2019-05-01T01:31:05.999Z,84.37
2019-05-01T01:33:37.996Z,84.69
2019-05-01T01:36:08.649Z,84.73
2019-05-01T01:38:39.710Z,84.91
2019-05-01T01:41:10.771Z,85.18
2019-05-01T01:43:56.252Z,85.28
2019-05-01T01:46:34.883Z,84.99
2019-05-01T01:49:05.940Z,85.16
2019-05-01T01:51:36.780Z,85.30
2019-05-01T01:54:08.064Z,85.52
2019-05-01T01:56:39.071Z,85.73
2019-05-01T01:59:10.190Z,85.94
2019-05-01T02:01:48.405Z,85.55
2019-05-01T02:04:21.099Z,85.69
2019-05-01T02:06:52.165Z,85.63
2019-05-01T02:09:23.122Z,85.58
2019-05-01T02:11:54.181Z,85.81
2019-05-01T02:14:25.139Z,85.73
2019-05-01T02:16:55.994Z,85.81
2019-05-01T02:19:27.054Z,85.69
2019-05-01T02:21:57.893Z,85.54
2019-05-01T02:24:28.975Z,85.27
2019-05-01T02:27:04.433Z,84.82
2019-05-01T02:29:37.539Z,84.72
2019-05-01T02:32:08.906Z,84.72
2019-05-01T02:34:43.230Z,84.78
2019-05-01T02:37:16.032Z,85.02
2019-05-01T02:39:49.228Z,85.13
2019-05-01T02:42:22.557Z,84.91
2019-05-01T02:44:55.237Z,85.49
2019-05-01T02:47:29.487Z,85.33
2019-05-01T02:50:03.432Z,85.67
2019-05-01T02:52:37.640Z,85.34
2019-05-01T02:55:11.774Z,85.08
2019-05-01T02:57:43.545Z,84.99
2019-05-01T03:00:14.780Z,85.42
2019-05-01T03:02:45.885Z,85.09
2019-05-01T03:05:16.627Z,85.41
2019-05-01T03:07:47.584Z,85.35
2019-05-01T03:10:18.744Z,85.22
2019-05-01T03:12:52.459Z,85.26
2019-05-01T03:15:24.285Z,85.19
2019-05-01T03:17:57.246Z,85.03
2019-05-01T03:20:42.357Z,85.13
2019-05-01T03:23:15.427Z,85.48
2019-05-01T03:25:47.000Z,85.34
2019-05-01T03:28:18.052Z,84.75
2019-05-01T03:30:49.215Z,84.00
2019-05-01T03:33:19.853Z,84.27
2019-05-01T03:35:51.239Z,84.72
2019-05-01T03:38:22.191Z,84.74
2019-05-01T03:40:53.263Z,85.08
2019-05-01T03:43:24.205Z,85.05
2019-05-01T03:45:56.014Z,85.10
2019-05-01T03:48:27.055Z,85.34
2019-05-01T03:50:58.116Z,84.75
2019-05-01T03:53:29.892Z,84.86
2019-05-01T03:56:01.781Z,85.09
2019-05-01T03:58:33.327Z,84.48
2019-05-01T04:01:14.927Z,84.52
2019-05-01T04:03:53.566Z,84.30
2019-05-01T04:06:24.529Z,84.61
2019-05-01T04:08:56.118Z,84.27
2019-05-01T04:11:26.832Z,84.29
2019-05-01T04:13:58.515Z,84.34
2019-05-01T04:16:29.488Z,84.27
2019-05-01T04:19:00.442Z,84.29
2019-05-01T04:21:32.901Z,84.46
2019-05-01T04:24:04.505Z,84.19
2019-05-01T04:26:35.272Z,83.80
2019-05-01T04:29:16.754Z,83.72
2019-05-01T04:32:04.407Z,83.13
2019-05-01T04:34:46.386Z,83.41
2019-05-01T04:37:18.776Z,83.10
2019-05-01T04:39:49.938Z,82.07
2019-05-01T04:42:20.776Z,82.02
2019-05-01T04:44:51.856Z,81.84
2019-05-01T04:47:23.235Z,81.45
2019-05-01T04:49:54.489Z,81.28
2019-05-01T04:52:25.608Z,80.83
2019-05-01T04:54:56.611Z,80.94
2019-05-01T04:57:27.652Z,80.38
2019-05-01T04:59:59.651Z,80.00
2019-05-01T05:02:32.639Z,78.93
2019-05-01T05:05:03.816Z,78.61
2019-05-01T05:07:34.662Z,78.67
2019-05-01T05:10:06.640Z,78.79
2019-05-01T05:12:39.261Z,78.70
2019-05-01T05:15:26.979Z,76.83
2019-05-01T05:17:58.140Z,76.68
2019-05-01T05:20:29.288Z,77.21
2019-05-01T05:23:00.809Z,77.74
2019-05-01T05:25:31.837Z,77.06
2019-05-01T05:28:02.800Z,77.03
2019-05-01T05:30:36.399Z,76.75
2019-05-01T05:33:18.041Z,77.19
2019-05-01T05:35:43.751Z,77.23
2019-05-01T05:38:21.459Z,77.46
2019-05-01T05:40:52.965Z,76.91
2019-05-01T05:43:24.989Z,76.91
2019-05-01T05:45:56.380Z,76.62
2019-05-01T05:48:27.735Z,76.61
2019-05-01T05:51:10.875Z,75.45
2019-05-01T05:53:50.837Z,75.63
2019-05-01T05:56:25.986Z,75.51
2019-05-01T05:59:00.205Z,75.61
2019-05-01T06:01:52.654Z,74.66
2019-05-01T06:04:30.565Z,75.11
2019-05-01T06:07:05.801Z,74.39
2019-05-01T06:09:44.506Z,73.95
2019-05-01T06:12:22.161Z,73.67
2019-05-01T06:14:56.272Z,73.60
2019-05-01T06:17:35.016Z,74.23
2019-05-01T06:20:12.914Z,74.87
2019-05-01T06:23:04.945Z,74.21
2019-05-01T06:25:40.139Z,74.06
2019-05-01T06:28:11.787Z,73.89
2019-05-01T06:30:47.049Z,73.96
2019-05-01T06:33:15.542Z,73.82
2019-05-01T06:35:46.384Z,72.88
2019-05-01T06:38:18.717Z,73.43
2019-05-01T06:40:52.944Z,72.11
2019-05-01T06:43:30.411Z,73.08
2019-05-01T06:46:09.457Z,73.50
2019-05-01T06:48:53.506Z,74.09
2019-05-01T06:51:35.711Z,73.20
2019-05-01T06:54:16.422Z,73.32
2019-05-01T06:56:49.913Z,73.03
2019-05-01T06:59:26.137Z,73.50
2019-05-01T07:02:02.375Z,73.49
2019-05-01T07:04:44.860Z,73.67
2019-05-01T07:07:25.246Z,73.83
2019-05-01T07:09:53.335Z,73.76
2019-05-01T07:12:31.870Z,73.10
2019-05-01T07:15:10.061Z,72.93
2019-05-01T07:17:53.539Z,72.84
2019-05-01T07:20:38.477Z,73.22
2019-05-01T07:23:19.198Z,72.88
2019-05-01T07:25:55.591Z,73.25
2019-05-01T07:28:33.583Z,71.80
2019-05-01T07:31:04.991Z,71.50
2019-05-01T07:33:34.967Z,70.51
2019-05-01T07:36:15.012Z,70.60
2019-05-01T07:38:40.541Z,70.69
2019-05-01T07:41:12.464Z,70.81
2019-05-01T07:43:45.254Z,71.11
2019-05-01T07:46:30.313Z,71.38
2019-05-01T07:49:02.176Z,70.99
2019-05-01T07:51:33.139Z,69.67
2019-05-01T07:54:08.521Z,69.00
2019-05-01T07:56:37.588Z,68.92
2019-05-01T07:59:08.575Z,69.14
2019-05-01T08:01:42.711Z,69.01
2019-05-01T08:04:19.752Z,68.44
2019-05-01T08:06:47.512Z,67.93
2019-05-01T08:09:20.062Z,66.94
2019-05-01T08:11:58.028Z,65.48
2019-05-01T08:14:31.621Z,65.21
2019-05-01T08:17:02.684Z,64.14
2019-05-01T08:19:39.505Z,63.73
2019-05-01T08:22:09.035Z,63.07
2019-05-01T08:24:40.056Z,61.79
2019-05-01T08:27:15.666Z,62.28
2019-05-01T08:29:53.232Z,61.66
2019-05-01T08:32:40.907Z,61.72
2019-05-01T08:35:12.815Z,61.63
2019-05-01T08:37:43.792Z,60.11
2019-05-01T08:40:15.880Z,59.23
2019-05-01T08:42:47.449Z,54.44
2019-05-01T08:45:23.112Z,56.73
2019-05-01T08:48:10.638Z,55.69
2019-05-01T08:50:41.638Z,56.21
2019-05-01T08:53:12.762Z,55.07
2019-05-01T08:55:45.005Z,56.73
2019-05-01T08:58:16.004Z,56.58
2019-05-01T09:00:47.166Z,54.86
2019-05-01T09:03:18.870Z,54.89
2019-05-01T09:05:52.138Z,54.20
2019-05-01T09:08:22.701Z,56.53
2019-05-01T09:10:54.819Z,54.19
2019-05-01T09:13:29.425Z,54.38
2019-05-01T09:16:00.689Z,53.23
2019-05-01T09:18:31.735Z,53.28
2019-05-01T09:21:02.711Z,53.34
2019-05-01T09:23:34.635Z,53.36
2019-05-01T09:26:22.730Z,53.67
2019-05-01T09:28:55.222Z,54.20
2019-05-01T09:31:33.994Z,52.96
2019-05-01T09:34:03.361Z,52.40
2019-05-01T09:36:34.216Z,51.38
2019-05-01T09:39:07.340Z,52.57
2019-05-01T09:41:38.871Z,52.51
2019-05-01T09:44:12.010Z,51.77
2019-05-01T09:46:42.651Z,52.46
2019-05-01T09:49:17.767Z,53.68
2019-05-01T09:52:05.350Z,51.94
2019-05-01T09:54:46.701Z,52.01
2019-05-01T09:57:30.160Z,50.97
2019-05-01T10:00:07.575Z,50.60
2019-05-01T10:58:29.994Z,50.71
2019-05-01T11:01:02.575Z,51.17
2019-05-01T11:03:33.426Z,50.09
2019-05-01T11:06:04.409Z,49.85
2019-05-01T11:08:35.668Z,48.33
2019-05-01T11:11:06.728Z,50.76
2019-05-01T11:13:37.792Z,50.15
2019-05-01T11:16:08.857Z,50.23
2019-05-01T11:18:40.047Z,48.43
2019-05-01T11:21:10.875Z,50.92
2019-05-01T11:23:41.729Z,48.76
2019-05-01T11:26:12.886Z,49.80
2019-05-01T11:28:44.049Z,49.90
2019-05-01T11:31:16.645Z,48.77
2019-05-01T11:33:58.226Z,50.15
2019-05-01T11:36:48.731Z,49.98
2019-05-01T11:39:24.096Z,49.88
2019-05-01T11:42:15.918Z,48.36
2019-05-01T11:44:47.085Z,48.17
2019-05-01T11:47:17.931Z,50.08
2019-05-01T11:49:50.360Z,49.28
2019-05-01T11:52:25.646Z,47.62
2019-05-01T11:54:59.915Z,47.05
2019-05-01T11:57:33.067Z,46.73
2019-05-01T12:00:16.163Z,45.17
2019-05-01T12:03:00.587Z,44.67
2019-05-01T12:05:39.860Z,45.95
2019-05-01T12:08:18.575Z,45.13
2019-05-01T12:10:59.180Z,44.37
2019-05-01T12:13:43.298Z,46.28
2019-05-01T12:16:06.796Z,45.95
2019-05-01T12:18:38.059Z,46.13
2019-05-01T12:21:08.713Z,45.56
2019-05-01T12:23:39.663Z,38.81
2019-05-01T12:26:10.832Z,39.41
2019-05-01T12:28:41.688Z,38.72
2019-05-01T12:31:12.731Z,37.60
2019-05-01T12:33:43.606Z,37.97
2019-05-01T12:36:14.665Z,38.11
2019-05-01T12:38:45.418Z,38.64
2019-05-01T12:41:27.117Z,39.14
2019-05-01T12:43:58.058Z,39.66
2019-05-01T12:46:36.296Z,37.84
2019-05-01T12:49:08.479Z,39.01
2019-05-01T12:51:40.461Z,38.16
2019-05-01T12:54:18.782Z,37.91
2019-05-01T12:56:59.356Z,36.65
2019-05-01T12:59:30.518Z,37.51
2019-05-01T13:02:01.376Z,38.04
2019-05-01T13:04:32.520Z,37.04
2019-05-01T13:07:03.701Z,36.99
2019-05-01T13:09:34.851Z,36.52
2019-05-01T13:12:06.845Z,36.43
2019-05-01T13:14:37.581Z,36.30
2019-05-01T13:17:08.460Z,35.12
2019-05-01T13:19:39.313Z,36.24
2019-05-01T13:22:10.270Z,36.65
2019-05-01T13:24:50.227Z,34.98
2019-05-01T13:27:31.616Z,36.08
2019-05-01T13:30:09.921Z,36.18
2019-05-01T13:32:42.315Z,34.79
2019-05-01T13:35:13.596Z,35.42
2019-05-01T13:37:44.657Z,35.99
2019-05-01T13:40:17.135Z,37.48
2019-05-01T13:42:47.901Z,37.49
2019-05-01T13:45:18.962Z,37.76
2019-05-01T13:47:49.822Z,39.03
2019-05-01T13:50:21.086Z,38.46
2019-05-01T13:52:52.042Z,35.27
2019-05-01T13:55:23.206Z,33.62
2019-05-01T13:57:54.350Z,32.86
2019-05-01T14:00:26.774Z,33.86
2019-05-01T14:02:57.413Z,36.00
2019-05-01T14:05:28.559Z,34.74
2019-05-01T14:07:59.327Z,35.96
2019-05-01T14:10:30.268Z,35.47
2019-05-01T14:13:01.330Z,34.99
2019-05-01T14:15:32.184Z,35.48
2019-05-01T14:18:03.369Z,35.97
2019-05-01T14:20:52.513Z,35.35
2019-05-01T14:23:27.764Z,36.37
2019-05-01T14:26:06.294Z,35.79
2019-05-01T14:28:38.659Z,35.47
2019-05-01T14:31:09.357Z,35.48
2019-05-01T14:33:40.192Z,35.10
2019-05-01T14:36:11.168Z,35.82
2019-05-01T14:38:42.022Z,35.09
2019-05-01T14:41:12.865Z,34.27
2019-05-01T14:43:43.819Z,32.82
2019-05-01T14:46:14.797Z,33.23
2019-05-01T14:48:45.548Z,32.31
2019-05-01T14:51:16.506Z,30.71
2019-05-01T14:53:47.363Z,30.24
2019-05-01T14:56:18.217Z,31.08
2019-05-01T14:58:49.176Z,32.01
2019-05-01T15:01:20.139Z,33.66
2019-05-01T15:03:50.975Z,32.96
2019-05-01T15:06:22.159Z,32.90
2019-05-01T15:08:53.198Z,32.63
2019-05-01T15:11:24.054Z,32.53
2019-05-01T15:14:12.909Z,32.39
2019-05-01T15:16:45.300Z,32.54
2019-05-01T15:19:17.767Z,34.21
2019-05-01T15:21:48.563Z,34.33
2019-05-01T15:24:19.521Z,36.37
2019-05-01T15:26:50.386Z,37.51
2019-05-01T15:29:21.338Z,38.57
2019-05-01T15:31:58.535Z,39.45
2019-05-01T15:34:29.681Z,40.55
2019-05-01T15:37:00.451Z,40.41
2019-05-01T15:39:33.235Z,41.13
2019-05-01T15:42:24.151Z,42.15
2019-05-01T15:44:55.011Z,41.34
2019-05-01T15:47:25.949Z,41.71
2019-05-01T15:49:56.713Z,37.94
2019-05-01T15:52:27.766Z,36.77
2019-05-01T15:54:58.967Z,35.02
2019-05-01T15:57:29.800Z,36.77
2019-05-01T16:00:00.657Z,38.94
2019-05-01T16:02:31.615Z,39.09
2019-05-01T16:05:02.471Z,40.18
2019-05-01T16:07:33.326Z,40.65
2019-05-01T16:10:08.768Z,40.86
2019-05-01T16:12:43.921Z,41.29
2019-05-01T16:15:25.428Z,41.46
2019-05-01T16:17:56.288Z,42.38
2019-05-01T16:20:27.244Z,43.11
2019-05-01T16:22:57.979Z,43.57
2019-05-01T16:25:28.958Z,43.65
2019-05-01T16:27:59.927Z,44.42
2019-05-01T16:30:30.796Z,44.80
2019-05-01T16:33:05.320Z,45.70
2019-05-01T16:35:36.252Z,45.17
2019-05-01T16:38:08.656Z,45.63
2019-05-01T16:40:41.252Z,45.72
2019-05-01T16:43:12.722Z,45.37
2019-05-01T16:45:43.885Z,45.77
2019-05-01T16:48:15.456Z,45.91
2019-05-01T16:50:46.415Z,45.78
2019-05-01T16:53:17.152Z,46.23
2019-05-01T16:55:48.109Z,46.09
2019-05-01T16:58:19.397Z,45.98
2019-05-01T17:01:02.930Z,46.06
2019-05-01T17:03:44.509Z,46.31
2019-05-01T17:06:17.030Z,46.66
2019-05-01T17:08:52.569Z,47.43
2019-05-01T17:11:28.736Z,47.33
2019-05-01T17:14:00.312Z,48.42
2019-05-01T17:16:31.286Z,47.66
2019-05-01T17:19:02.346Z,48.01
2019-05-01T17:21:33.200Z,48.54
2019-05-01T17:24:04.141Z,48.90
2019-05-01T17:26:35.015Z,48.88
2019-05-01T17:29:05.771Z,49.37
2019-05-01T17:31:36.606Z,49.62
2019-05-01T17:34:09.706Z,49.76
2019-05-01T17:36:39.976Z,49.56
2019-05-01T17:39:12.162Z,50.46
2019-05-01T17:41:42.929Z,50.71
2019-05-01T17:44:13.975Z,50.56
2019-05-01T17:46:53.389Z,51.24
2019-05-01T17:49:33.204Z,50.55
2019-05-01T17:52:06.181Z,50.89
2019-05-01T17:54:37.242Z,50.92
2019-05-01T17:57:08.201Z,49.81
2019-05-01T17:59:39.059Z,49.74
2019-05-01T18:02:24.845Z,49.28
2019-05-01T18:04:57.232Z,48.07
2019-05-01T18:07:33.143Z,47.58
2019-05-01T18:10:01.914Z,47.73
2019-05-01T18:12:32.666Z,47.70
2019-05-01T18:15:04.119Z,47.81
2019-05-01T18:17:34.564Z,48.32
2019-05-01T18:20:07.284Z,48.35
2019-05-01T18:22:39.671Z,48.29
2019-05-01T18:25:33.184Z,48.76
2019-05-01T18:28:06.138Z,48.63
2019-05-01T18:30:38.507Z,48.54
2019-05-01T18:33:09.482Z,48.71
2019-05-01T18:35:40.011Z,48.51
2019-05-01T18:38:21.407Z,49.25
2019-05-01T18:40:59.846Z,48.82
2019-05-01T18:43:32.154Z,49.22
2019-05-01T18:46:03.706Z,49.21
2019-05-01T18:48:34.561Z,49.12
2019-05-01T18:51:06.222Z,49.96
2019-05-01T18:53:36.972Z,49.22
2019-05-01T18:56:07.954Z,49.55
2019-05-01T18:58:38.809Z,49.33
2019-05-01T19:01:10.819Z,49.49
2019-05-01T19:03:42.300Z,49.47
2019-05-01T19:06:13.420Z,49.65
2019-05-01T19:08:44.154Z,49.59
2019-05-01T19:11:15.717Z,49.98
2019-05-01T19:13:46.307Z,49.86
2019-05-01T19:16:17.151Z,49.95
2019-05-01T19:18:47.906Z,50.46
2019-05-01T19:21:20.563Z,50.62
2019-05-01T19:23:52.820Z,50.58
2019-05-01T19:26:23.932Z,50.70
2019-05-01T19:28:54.815Z,50.68
2019-05-01T19:31:25.866Z,50.94
2019-05-01T19:33:56.441Z,50.90
2019-05-01T19:36:27.051Z,51.01
2019-05-01T19:38:58.043Z,50.93
2019-05-01T19:41:30.965Z,51.26
2019-05-01T19:44:01.476Z,51.44
2019-05-01T19:46:32.333Z,51.47
2019-05-01T19:49:03.419Z,51.58
2019-05-01T19:51:35.079Z,51.23
2019-05-01T19:54:06.045Z,51.36
2019-05-01T19:56:36.990Z,51.62
2019-05-01T19:59:07.925Z,51.80
2019-05-01T20:01:44.633Z,51.64
2019-05-01T20:04:13.218Z,51.71
2019-05-01T20:06:43.713Z,51.84
2019-05-01T20:09:14.726Z,52.03
2019-05-01T20:11:45.396Z,52.00
2019-05-01T20:14:17.358Z,52.08
2019-05-01T20:16:50.989Z,52.38
2019-05-01T20:19:21.627Z,52.35
2019-05-01T20:21:54.144Z,52.59
2019-05-01T20:24:24.872Z,52.98
2019-05-01T20:26:57.586Z,52.84
2019-05-01T20:29:31.514Z,52.89
2019-05-01T20:32:03.289Z,53.33
2019-05-01T20:34:34.059Z,53.51
2019-05-01T20:37:04.780Z,53.42
2019-05-01T20:39:35.962Z,53.58
2019-05-01T20:42:07.112Z,53.75
2019-05-01T20:44:37.771Z,54.24
2019-05-01T20:47:08.507Z,54.45
2019-05-01T20:49:41.323Z,54.28
2019-05-01T20:52:12.487Z,54.31
2019-05-01T20:54:43.230Z,54.33
2019-05-01T20:57:20.759Z,54.23
2019-05-01T20:59:48.344Z,53.95
2019-05-01T21:02:19.169Z,54.73
2019-05-01T21:04:52.082Z,54.47
2019-05-01T21:07:29.985Z,54.27
2019-05-01T21:10:02.281Z,54.25
2019-05-01T21:12:33.329Z,54.67
2019-05-01T21:15:07.628Z,54.60
2019-05-01T21:17:44.267Z,55.05
2019-05-01T21:20:13.522Z,55.17
2019-05-01T21:22:44.037Z,55.28
2019-05-01T21:25:14.787Z,55.78
2019-05-01T21:27:45.541Z,55.51
2019-05-01T21:30:16.381Z,55.55
2019-05-01T21:32:47.269Z,56.39
2019-05-01T21:35:18.008Z,56.55
2019-05-01T21:37:48.968Z,56.34
2019-05-01T21:40:19.398Z,56.16
2019-05-01T21:42:54.327Z,55.88
2019-05-01T21:45:23.579Z,56.47
2019-05-01T21:47:55.663Z,56.10
2019-05-01T21:50:27.850Z,56.38
2019-05-01T21:53:03.316Z,56.33
2019-05-01T21:55:32.122Z,56.77
2019-05-01T21:58:05.031Z,56.74
2019-05-01T22:00:39.644Z,57.20
2019-05-01T22:03:10.806Z,57.07
2019-05-01T22:05:41.882Z,57.45
2019-05-01T22:08:12.737Z,57.74
2019-05-01T22:10:51.766Z,57.42
2019-05-01T22:13:20.351Z,57.74
2019-05-01T22:15:53.368Z,57.70
2019-05-01T22:18:31.710Z,57.84
2019-05-01T22:21:03.983Z,57.77
2019-05-01T22:23:52.444Z,57.58
2019-05-01T22:26:23.483Z,57.75
2019-05-01T22:28:56.121Z,58.07
2019-05-01T22:31:44.839Z,58.24
2019-05-01T22:34:32.160Z,59.33
2019-05-01T22:37:03.016Z,59.01
2019-05-01T22:39:34.792Z,58.81
2019-05-01T22:42:05.343Z,59.17
2019-05-01T22:44:35.106Z,58.70
2019-05-01T22:47:10.164Z,59.06
2019-05-01T22:49:38.836Z,59.13
2019-05-01T22:52:09.599Z,59.36
2019-05-01T22:54:40.338Z,59.58
2019-05-01T22:57:11.193Z,59.84
2019-05-01T22:59:41.949Z,60.16
2019-05-01T23:02:28.480Z,60.30
2019-05-01T23:04:58.590Z,60.93
2019-05-01T23:07:29.468Z,61.06
2019-05-01T23:10:03.199Z,61.76
2019-05-01T23:12:32.711Z,61.63
2019-05-01T23:15:06.123Z,61.83
2019-05-01T23:17:41.683Z,62.07
2019-05-01T23:20:12.643Z,62.28
2019-05-01T23:22:43.378Z,62.59
2019-05-01T23:25:14.971Z,63.14
2019-05-01T23:27:45.831Z,63.17
2019-05-01T23:30:19.137Z,63.10
2019-05-01T23:32:49.992Z,63.57
2019-05-01T23:35:20.727Z,63.51
2019-05-01T23:37:51.501Z,63.61
2019-05-01T23:40:22.361Z,63.67
2019-05-01T23:42:53.955Z,63.71
2019-05-01T23:45:24.580Z,63.79
2019-05-01T23:47:55.434Z,64.06
2019-05-01T23:50:26.187Z,64.22
2019-05-01T23:52:56.923Z,64.48
2019-05-01T23:55:27.797Z,64.62
2019-05-01T23:57:58.656Z,64.92
